Time;durP1;ratioP1;P1;durP2;ratioP2;P2;SDS_P1;SDS_P2;PMS_P1;PMS_P2;Temp;Humidity;BMP_temperature;BMP_pressure;BME280_temperature;BME280_humidity;BME280_pressure;Samples;Min_cycle;Max_cycle;Signal;HPM_P1;HPM_P2
2023/12/04 00:00:11;;;;;;;17.20;5.38;;;1.20;99.90;;;;;;5014429;28;20052;-75
2023/12/04 00:02:38;;;;;;;17.35;5.95;;;1.20;99.90;;;;;;5014405;28;20394;-75
2023/12/04 00:05:04;;;;;;;17.85;4.95;;;1.30;99.90;;;;;;5013147;28;20509;-74
2023/12/04 00:07:30;;;;;;;18.02;5.65;;;1.30;99.90;;;;;;5012764;28;20084;-74
2023/12/04 00:09:55;;;;;;;18.73;5.90;;;1.30;99.90;;;;;;5013668;28;20030;-74
2023/12/04 00:12:21;;;;;;;15.95;5.45;;;1.30;99.90;;;;;;5014912;28;20026;-74
2023/12/04 00:14:46;;;;;;;16.38;4.90;;;1.30;99.90;;;;;;5013981;28;20030;-74
2023/12/04 00:17:12;;;;;;;14.85;5.47;;;1.30;99.90;;;;;;5012833;28;20049;-74
2023/12/04 00:19:37;;;;;;;15.15;4.80;;;1.30;99.90;;;;;;5012780;28;20030;-74
2023/12/04 00:22:03;;;;;;;17.00;5.78;;;1.30;99.90;;;;;;5012636;28;20393;-74
2023/12/04 00:24:29;;;;;;;16.05;5.47;;;1.30;99.90;;;;;;5013641;28;20033;-74
2023/12/04 00:26:54;;;;;;;17.35;4.72;;;1.30;99.90;;;;;;5014330;28;20057;-74
2023/12/04 00:29:20;;;;;;;16.67;5.07;;;1.30;99.90;;;;;;5014327;28;20018;-74
2023/12/04 00:31:45;;;;;;;17.60;5.10;;;1.30;99.90;;;;;;5014095;28;20071;-74
2023/12/04 00:34:12;;;;;;;14.07;5.85;;;1.30;99.90;;;;;;5014071;28;20030;-74
2023/12/04 00:36:37;;;;;;;14.23;4.55;;;1.90;99.90;;;;;;5014407;28;20022;-74
2023/12/04 00:39:03;;;;;;;15.35;5.55;;;1.40;99.90;;;;;;5014022;28;20060;-74
2023/12/04 00:41:32;;;;;;;15.80;4.95;;;1.40;99.90;;;;;;5013783;28;20022;-74
2023/12/04 00:43:57;;;;;;;16.80;4.78;;;1.40;99.90;;;;;;5014142;28;20105;-74
2023/12/04 00:46:23;;;;;;;19.63;5.13;;;1.40;99.90;;;;;;5014647;28;20026;-74
2023/12/04 00:48:48;;;;;;;14.93;4.60;;;1.40;99.90;;;;;;5014394;28;20026;-74
2023/12/04 00:51:14;;;;;;;16.40;5.22;;;1.40;99.90;;;;;;5013706;28;20425;-74
2023/12/04 00:53:40;;;;;;;12.90;4.57;;;1.40;99.90;;;;;;5014244;28;20535;-74
2023/12/04 00:56:06;;;;;;;15.85;4.35;;;1.40;99.90;;;;;;5014053;28;20061;-74
2023/12/04 00:58:31;;;;;;;16.50;5.75;;;1.40;99.90;;;;;;5014065;28;20036;-74
2023/12/04 01:00:57;;;;;;;13.75;4.45;;;1.50;99.90;;;;;;5012934;28;20117;-74
2023/12/04 01:03:23;;;;;;;16.10;5.50;;;1.40;99.90;;;;;;5013712;28;20061;-74
2023/12/04 01:05:48;;;;;;;13.27;4.65;;;1.40;99.90;;;;;;5013758;28;20076;-74
2023/12/04 01:08:14;;;;;;;18.08;5.25;;;;;;;;;;5012654;28;20080;-74
2023/12/04 01:10:40;;;;;;;12.25;4.53;;;1.40;99.90;;;;;;5013215;28;20022;-74
2023/12/04 01:13:06;;;;;;;14.40;4.93;;;1.40;99.90;;;;;;5012868;28;20021;-74
2023/12/04 01:15:32;;;;;;;14.43;4.82;;;1.40;99.90;;;;;;5013152;28;20034;-74
2023/12/04 01:18:00;;;;;;;15.27;4.85;;;1.40;99.90;;;;;;5013428;28;20489;-75
2023/12/04 01:20:26;;;;;;;14.73;5.45;;;1.40;99.90;;;;;;5013244;28;20069;-75
2023/12/04 01:22:51;;;;;;;16.05;4.95;;;1.40;99.90;;;;;;5016760;28;20030;-75
2023/12/04 01:25:17;;;;;;;14.57;4.75;;;1.40;99.90;;;;;;5017348;28;20029;-75
2023/12/04 01:27:42;;;;;;;18.10;5.40;;;1.30;99.90;;;;;;5017117;28;20433;-75
2023/12/04 01:30:09;;;;;;;15.60;5.18;;;1.40;99.90;;;;;;5016928;28;20029;-75
2023/12/04 01:32:35;;;;;;;18.50;5.80;;;1.30;99.90;;;;;;5017047;28;20033;-75
2023/12/04 01:35:01;;;;;;;17.00;4.90;;;1.30;99.90;;;;;;5015129;28;20030;-75
2023/12/04 01:37:27;;;;;;;14.43;5.28;;;1.30;99.90;;;;;;5015664;28;20026;-75
2023/12/04 01:39:53;;;;;;;15.77;5.00;;;1.40;99.90;;;;;;5016623;28;20026;-75
2023/12/04 01:42:18;;;;;;;14.98;4.85;;;1.40;99.90;;;;;;5015517;28;20057;-75
2023/12/04 01:44:44;;;;;;;19.10;5.93;;;1.40;99.90;;;;;;5015993;28;20123;-74
2023/12/04 01:47:11;;;;;;;15.95;5.10;;;1.40;99.90;;;;;;5015369;28;20585;-74
2023/12/04 01:49:37;;;;;;;18.83;5.53;;;1.40;99.90;;;;;;5016288;28;20504;-74
2023/12/04 01:52:03;;;;;;;17.20;5.78;;;1.40;99.90;;;;;;5016509;28;20026;-74
2023/12/04 01:54:30;;;;;;;15.52;5.07;;;1.30;99.90;;;;;;5016692;28;20026;-74
2023/12/04 01:56:55;;;;;;;13.93;5.40;;;1.30;99.90;;;;;;5016495;28;20098;-74
2023/12/04 01:59:21;;;;;;;15.25;5.05;;;1.30;99.90;;;;;;5016177;28;20435;-75
2023/12/04 02:01:51;;;;;;;16.25;5.60;;;1.30;99.90;;;;;;5016479;28;20366;-75
2023/12/04 02:04:17;;;;;;;15.43;4.90;;;1.30;99.90;;;;;;5016192;28;20034;-75
2023/12/04 02:06:42;;;;;;;13.25;4.72;;;1.30;99.90;;;;;;5015947;28;20025;-75
2023/12/04 02:09:12;;;;;;;17.35;5.75;;;1.30;99.90;;;;;;5014402;28;20022;-74
2023/12/04 02:11:38;;;;;;;20.90;5.70;;;1.30;99.90;;;;;;5015916;28;20022;-74
2023/12/04 02:14:05;;;;;;;17.52;5.68;;;1.30;99.90;;;;;;5016381;28;20026;-74
2023/12/04 02:16:35;;;;;;;15.95;4.85;;;1.30;99.90;;;;;;5016011;28;20034;-74
2023/12/04 02:19:00;;;;;;;17.45;5.18;;;1.70;99.90;;;;;;5015779;28;20026;-74
2023/12/04 02:21:26;;;;;;;17.67;5.38;;;1.30;99.90;;;;;;5016116;28;20474;-74
2023/12/04 02:23:55;;;;;;;15.73;5.22;;;1.30;99.90;;;;;;5016310;28;20049;-74
2023/12/04 02:26:27;;;;;;;14.40;5.45;;;1.30;99.90;;;;;;5015279;28;20026;-74
2023/12/04 02:28:58;;;;;;;16.38;5.45;;;1.40;99.90;;;;;;5014028;28;20025;-74
2023/12/04 02:31:24;;;;;;;16.45;6.10;;;1.30;99.90;;;;;;5014068;28;20030;-75
2023/12/04 02:33:55;;;;;;;17.23;5.40;;;1.40;99.90;;;;;;4995637;28;20034;-74
2023/12/04 02:36:23;;;;;;;17.42;5.28;;;1.40;99.90;;;;;;5013686;28;20021;-74
2023/12/04 02:38:50;;;;;;;17.77;5.78;;;1.40;99.90;;;;;;5015629;28;20032;-74
2023/12/04 02:41:17;;;;;;;14.57;5.05;;;1.40;99.90;;;;;;5015630;28;20104;-74
2023/12/04 02:43:43;;;;;;;16.98;5.45;;;1.40;99.90;;;;;;5014230;28;20103;-74
2023/12/04 02:46:09;;;;;;;16.15;5.03;;;1.40;99.90;;;;;;5015945;28;20477;-74
2023/12/04 02:48:37;;;;;;;18.02;5.72;;;1.40;99.90;;;;;;5014318;28;20072;-74
2023/12/04 02:51:03;;;;;;;18.65;5.53;;;1.40;99.90;;;;;;5015458;28;20030;-73
2023/12/04 02:53:29;;;;;;;14.48;5.35;;;1.40;99.90;;;;;;5015483;28;20029;-74
2023/12/04 02:55:54;;;;;;;18.80;5.95;;;1.30;99.90;;;;;;5015285;28;20084;-74
2023/12/04 02:58:20;;;;;;;16.55;5.28;;;1.40;99.90;;;;;;5014782;28;20381;-74
2023/12/04 03:00:45;;;;;;;18.65;5.72;;;1.40;99.90;;;;;;5015188;28;20552;-74
2023/12/04 03:03:11;;;;;;;13.32;5.43;;;1.40;99.90;;;;;;5015204;28;20539;-74
2023/12/04 03:05:37;;;;;;;14.82;5.38;;;1.40;99.90;;;;;;5015069;28;20056;-74
2023/12/04 03:08:02;;;;;;;16.35;4.68;;;1.40;99.90;;;;;;5014950;28;20038;-74
2023/12/04 03:10:28;;;;;;;14.23;4.60;;;1.40;99.90;;;;;;5013786;28;20489;-74
2023/12/04 03:12:53;;;;;;;17.98;5.22;;;1.40;99.90;;;;;;5013675;28;20030;-74
2023/12/04 03:15:19;;;;;;;13.20;4.75;;;1.40;99.90;;;;;;5006683;28;20389;-75
2023/12/04 03:17:45;;;;;;;18.85;5.22;;;1.40;99.90;;;;;;4995348;28;20394;-75
2023/12/04 03:20:11;;;;;;;16.73;5.63;;;1.40;99.90;;;;;;4995160;28;20030;-75
2023/12/04 03:22:37;;;;;;;15.43;4.82;;;1.30;99.90;;;;;;4995343;28;20022;-74
2023/12/04 03:25:03;;;;;;;14.57;4.78;;;1.30;99.90;;;;;;4995346;28;20076;-74
2023/12/04 03:27:28;;;;;;;16.98;5.30;;;1.30;99.90;;;;;;4995227;28;20413;-75
2023/12/04 03:29:54;;;;;;;18.45;4.72;;;1.30;99.90;;;;;;4995233;28;20037;-74
2023/12/04 03:32:20;;;;;;;14.35;5.07;;;1.30;99.90;;;;;;4995103;28;20030;-74
2023/12/04 03:34:45;;;;;;;15.38;4.75;;;1.20;99.90;;;;;;4995052;28;20086;-74
2023/12/04 03:37:11;;;;;;;17.27;5.60;;;1.20;99.90;;;;;;4995092;28;20038;-75
2023/12/04 03:39:36;;;;;;;14.70;4.68;;;1.30;99.90;;;;;;4996895;28;20037;-75
2023/12/04 03:42:02;;;;;;;15.23;5.35;;;1.30;99.90;;;;;;5013648;28;20081;-74
2023/12/04 03:44:28;;;;;;;15.90;5.15;;;1.30;99.90;;;;;;5012402;28;20091;-74
2023/12/04 03:46:53;;;;;;;12.82;4.65;;;1.30;99.90;;;;;;5014682;28;20026;-74
2023/12/04 03:49:19;;;;;;;11.77;4.55;;;1.30;99.90;;;;;;5014293;28;20033;-74
2023/12/04 03:51:44;;;;;;;20.33;4.93;;;1.20;99.90;;;;;;5014087;28;20033;-74
2023/12/04 03:54:10;;;;;;;16.00;4.28;;;1.30;99.90;;;;;;5014207;28;20025;-74
2023/12/04 03:56:35;;;;;;;15.52;4.85;;;1.30;99.90;;;;;;5014370;28;20084;-74
2023/12/04 03:59:01;;;;;;;16.10;5.07;;;1.30;99.90;;;;;;5014153;28;20552;-74
2023/12/04 04:01:26;;;;;;;13.02;4.47;;;1.30;99.90;;;;;;5014072;28;20081;-75
2023/12/04 04:03:52;;;;;;;13.50;4.22;;;1.30;99.90;;;;;;5013942;28;20512;-74
2023/12/04 04:06:17;;;;;;;11.55;4.32;;;1.30;99.90;;;;;;5014879;28;20025;-74
2023/12/04 04:08:46;;;;;;;15.63;4.63;;;1.30;99.90;;;;;;5013625;28;20030;-74
2023/12/04 04:11:11;;;;;;;9.52;3.30;;;1.20;99.90;;;;;;5014196;28;20394;-74
2023/12/04 04:13:37;;;;;;;14.93;4.65;;;1.30;99.90;;;;;;5013859;28;20030;-74
2023/12/04 04:16:03;;;;;;;11.05;3.83;;;1.40;99.90;;;;;;5014147;28;20034;-74
2023/12/04 04:18:28;;;;;;;15.15;4.78;;;1.40;99.90;;;;;;5013987;28;20033;-74
2023/12/04 04:20:54;;;;;;;13.98;4.00;;;1.30;99.90;;;;;;5014018;28;20037;-74
2023/12/04 04:23:19;;;;;;;18.35;4.72;;;1.40;99.90;;;;;;5012690;28;20079;-74
2023/12/04 04:25:45;;;;;;;15.30;5.55;;;1.30;99.90;;;;;;5013823;28;20088;-75
2023/12/04 04:28:10;;;;;;;13.48;4.78;;;1.30;99.90;;;;;;5012626;28;20437;-74
2023/12/04 04:30:36;;;;;;;11.95;3.65;;;1.30;99.90;;;;;;5013719;28;20038;-75
2023/12/04 04:33:04;;;;;;;15.07;4.50;;;1.30;99.90;;;;;;5013855;28;20478;-75
2023/12/04 04:35:29;;;;;;;11.67;4.10;;;1.40;99.90;;;;;;5014036;28;20425;-74
2023/12/04 04:37:55;;;;;;;16.23;4.22;;;1.40;99.90;;;;;;5012667;28;20026;-75
2023/12/04 04:40:21;;;;;;;13.25;4.78;;;1.40;99.90;;;;;;5013953;28;20076;-75
2023/12/04 04:42:49;;;;;;;12.05;4.57;;;1.40;99.90;;;;;;5014085;28;20029;-75
2023/12/04 04:45:15;;;;;;;12.85;4.07;;;1.40;99.90;;;;;;5013978;28;20034;-75
2023/12/04 04:47:40;;;;;;;12.63;3.70;;;1.40;99.90;;;;;;5013503;28;20072;-75
2023/12/04 04:50:06;;;;;;;12.50;4.18;;;1.40;99.90;;;;;;5012204;28;20061;-74
2023/12/04 04:52:32;;;;;;;14.02;4.10;;;1.40;99.90;;;;;;5013849;28;20049;-74
2023/12/04 04:54:57;;;;;;;9.68;3.63;;;1.40;99.90;;;;;;5014127;28;20022;-74
2023/12/04 04:57:23;;;;;;;14.25;4.18;;;1.40;99.90;;;;;;5016352;28;20080;-74
2023/12/04 04:59:48;;;;;;;15.93;4.10;;;1.30;99.90;;;;;;5017541;28;20021;-75
2023/12/04 05:02:14;;;;;;;10.00;3.80;;;1.30;99.90;;;;;;5017598;28;20389;-74
2023/12/04 05:04:39;;;;;;;13.55;3.60;;;1.30;99.90;;;;;;5016276;28;20029;-74
2023/12/04 05:07:05;;;;;;;11.07;4.15;;;1.40;99.90;;;;;;5017852;28;20390;-74
2023/12/04 05:09:30;;;;;;;12.98;4.78;;;1.30;99.90;;;;;;5017068;28;20401;-74
2023/12/04 05:11:56;;;;;;;11.60;4.00;;;1.40;99.90;;;;;;5017336;28;20042;-74
2023/12/04 05:14:22;;;;;;;10.88;3.50;;;1.40;99.90;;;;;;5017174;28;20026;-74
2023/12/04 05:16:47;;;;;;;12.38;3.42;;;1.40;99.90;;;;;;5017229;28;20026;-74
2023/12/04 05:19:13;;;;;;;11.70;3.72;;;1.40;99.90;;;;;;5016685;28;20030;-74
2023/12/04 05:21:38;;;;;;;10.15;3.40;;;1.40;99.90;;;;;;5015612;28;20404;-74
2023/12/04 05:24:04;;;;;;;14.60;3.53;;;1.40;99.90;;;;;;5015735;28;20030;-74
2023/12/04 05:26:30;;;;;;;12.95;4.32;;;1.40;99.90;;;;;;5016857;28;20033;-74
2023/12/04 05:28:56;;;;;;;13.65;4.13;;;1.40;99.90;;;;;;5015579;28;20045;-74
2023/12/04 05:31:22;;;;;;;12.13;3.67;;;1.40;99.90;;;;;;5016857;28;20030;-74
2023/12/04 05:33:47;;;;;;;12.48;4.88;;;1.40;99.90;;;;;;5016964;28;20022;-74
2023/12/04 05:36:13;;;;;;;11.32;3.92;;;1.40;99.90;;;;;;5017517;28;20041;-74
2023/12/04 05:38:38;;;;;;;12.25;4.43;;;1.40;99.90;;;;;;5016938;28;20029;-74
2023/12/04 05:41:04;;;;;;;11.48;4.13;;;1.40;99.90;;;;;;5016895;28;20108;-74
2023/12/04 05:43:29;;;;;;;12.38;3.88;;;1.40;99.90;;;;;;5016676;28;20462;-74
2023/12/04 05:45:55;;;;;;;12.50;3.45;;;1.40;99.90;;;;;;5016833;28;20044;-74
2023/12/04 05:48:20;;;;;;;13.13;4.60;;;1.40;99.90;;;;;;5017121;28;20026;-74
2023/12/04 05:50:46;;;;;;;11.25;4.38;;;1.40;99.90;;;;;;5016469;28;20481;-74
2023/12/04 05:53:11;;;;;;;13.65;5.10;;;1.40;99.90;;;;;;5015026;28;20022;-74
2023/12/04 05:55:37;;;;;;;13.30;4.30;;;1.40;99.90;;;;;;5016417;28;20026;-74
2023/12/04 05:58:03;;;;;;;13.93;4.60;;;1.40;99.90;;;;;;5016602;28;20030;-74
2023/12/04 06:00:28;;;;;;;17.67;4.47;;;1.40;99.90;;;;;;5015519;28;20029;-74
2023/12/04 06:02:54;;;;;;;13.45;4.45;;;1.40;99.90;;;;;;5015095;28;20037;-74
2023/12/04 06:05:19;;;;;;;13.70;4.57;;;1.40;99.90;;;;;;5016148;28;20018;-75
2023/12/04 06:07:45;;;;;;;10.65;4.18;;;1.40;99.90;;;;;;5015358;28;20465;-74
2023/12/04 06:10:11;;;;;;;12.18;4.32;;;1.40;99.90;;;;;;5016414;28;20413;-75
2023/12/04 06:12:36;;;;;;;13.45;3.85;;;1.40;99.90;;;;;;5009514;28;20493;-74
2023/12/04 06:15:02;;;;;;;13.18;4.07;;;1.40;99.90;;;;;;4996679;28;20023;-74
2023/12/04 06:17:27;;;;;;;13.38;4.35;;;1.40;99.90;;;;;;4996572;28;20077;-74
2023/12/04 06:19:53;;;;;;;11.73;3.85;;;1.40;99.90;;;;;;4995493;28;20485;-73
2023/12/04 06:22:21;;;;;;;12.18;3.65;;;1.40;99.90;;;;;;5016365;28;20033;-74
2023/12/04 06:24:50;;;;;;;11.77;4.28;;;1.40;99.90;;;;;;5015724;28;20108;-74
2023/12/04 06:27:19;;;;;;;10.80;4.28;;;1.50;99.90;;;;;;5016092;28;20026;-74
2023/12/04 06:29:46;;;;;;;9.82;3.78;;;1.50;99.90;;;;;;5015529;28;20457;-73
2023/12/04 06:32:12;;;;;;;9.82;4.07;;;1.50;99.90;;;;;;5015933;28;20022;-74
2023/12/04 06:34:38;;;;;;;10.07;3.40;;;1.40;99.90;;;;;;5015788;28;20065;-74
2023/12/04 06:37:08;;;;;;;11.95;3.75;;;1.40;99.90;;;;;;5014519;28;20026;-73
2023/12/04 06:39:36;;;;;;;11.40;4.03;;;1.50;99.90;;;;;;5019606;28;20084;-76
2023/12/04 06:42:02;;;;;;;10.98;3.88;;;1.50;99.90;;;;;;5015677;28;20033;-73
2023/12/04 06:44:31;;;;;;;10.20;3.17;;;1.50;99.90;;;;;;5015082;28;20030;-72
2023/12/04 06:47:00;;;;;;;11.88;3.67;;;1.60;99.90;;;;;;5015894;28;20018;-73
2023/12/04 06:49:30;;;;;;;11.43;3.78;;;1.50;99.90;;;;;;5015850;28;20045;-73
2023/12/04 06:51:55;;;;;;;8.13;3.33;;;1.50;99.90;;;;;;5015865;28;20032;-73
2023/12/04 06:54:21;;;;;;;9.15;3.13;;;1.50;99.90;;;;;;5015623;28;20021;-73
2023/12/04 06:56:46;;;;;;;11.70;3.55;;;1.50;99.90;;;;;;5015806;28;20464;-72
2023/12/04 06:59:12;;;;;;;8.50;2.72;;;1.50;99.90;;;;;;5015441;28;20571;-73
2023/12/04 07:01:37;;;;;;;11.40;2.83;;;1.50;99.90;;;;;;5014157;28;20057;-73
2023/12/04 07:04:09;;;;;;;11.30;3.50;;;1.50;99.90;;;;;;5015868;28;20371;-73
2023/12/04 07:06:38;;;;;;;8.77;3.30;;;1.60;99.90;;;;;;5015202;28;20029;-73
2023/12/04 07:09:04;;;;;;;10.90;3.55;;;1.50;99.90;;;;;;5015411;28;20109;-73
2023/12/04 07:11:30;;;;;;;11.88;3.45;;;1.60;99.90;;;;;;5015721;28;20037;-73
2023/12/04 07:13:56;;;;;;;9.93;2.97;;;1.60;99.90;;;;;;5015396;28;20038;-73
2023/12/04 07:16:21;;;;;;;9.00;3.25;;;1.60;99.90;;;;;;5015471;28;20029;-73
2023/12/04 07:18:47;;;;;;;9.50;3.25;;;1.60;99.90;;;;;;5015499;28;20068;-73
2023/12/04 07:21:12;;;;;;;6.75;2.88;;;1.60;99.90;;;;;;5015541;28;20030;-73
2023/12/04 07:23:38;;;;;;;9.98;2.80;;;1.60;99.90;;;;;;5014334;28;20528;-73
2023/12/04 07:26:06;;;;;;;8.18;2.95;;;1.60;99.90;;;;;;5015013;28;20476;-73
2023/12/04 07:28:32;;;;;;;12.63;3.63;;;1.60;99.90;;;;;;5015510;28;20446;-73
2023/12/04 07:30:57;;;;;;;9.95;3.08;;;1.60;99.90;;;;;;5015014;28;20018;-73
2023/12/04 07:33:23;;;;;;;7.63;3.33;;;1.60;99.90;;;;;;5015066;28;20029;-73
2023/12/04 07:35:49;;;;;;;7.95;3.03;;;1.60;99.90;;;;;;5014649;28;20045;-73
2023/12/04 07:38:14;;;;;;;9.55;3.30;;;1.70;99.90;;;;;;5014615;28;20029;-73
2023/12/04 07:40:40;;;;;;;7.20;2.50;;;1.70;99.90;;;;;;5014487;28;20386;-73
2023/12/04 07:43:05;;;;;;;8.75;2.88;;;1.70;99.90;;;;;;5015449;28;20034;-74
2023/12/04 07:45:31;;;;;;;8.77;3.17;;;1.70;99.90;;;;;;5013555;28;20520;-74
2023/12/04 07:47:56;;;;;;;10.15;3.20;;;1.60;99.90;;;;;;5011768;28;20050;-74
2023/12/04 07:50:22;;;;;;;9.43;2.88;;;1.60;99.90;;;;;;5004828;28;20029;-74
2023/12/04 07:52:48;;;;;;;9.63;2.75;;;1.60;99.90;;;;;;5012746;28;20076;-74
2023/12/04 07:55:14;;;;;;;6.65;2.38;;;1.60;99.90;;;;;;5000311;28;20029;-74
2023/12/04 07:57:39;;;;;;;9.80;3.15;;;1.60;99.90;;;;;;5007920;28;20371;-74
2023/12/04 08:00:05;;;;;;;7.50;2.78;;;1.60;99.90;;;;;;5014440;28;20025;-74
2023/12/04 08:02:31;;;;;;;6.80;2.67;;;1.60;99.90;;;;;;5017384;28;20542;-74
2023/12/04 08:04:57;;;;;;;8.73;3.42;;;1.60;99.90;;;;;;4995228;28;20110;-74
2023/12/04 08:07:22;;;;;;;8.30;2.40;;;1.60;99.90;;;;;;4993803;28;20049;-74
2023/12/04 08:09:48;;;;;;;6.28;2.40;;;1.70;99.90;;;;;;4993191;28;20022;-74
2023/12/04 08:12:13;;;;;;;8.70;3.03;;;1.70;99.90;;;;;;5005080;28;20033;-74
2023/12/04 08:14:39;;;;;;;10.07;3.00;;;1.70;99.90;;;;;;4998545;28;20026;-74
2023/12/04 08:17:05;;;;;;;11.48;2.97;;;1.70;99.90;;;;;;5013996;28;20030;-74
2023/12/04 08:19:31;;;;;;;6.95;2.85;;;1.80;99.90;;;;;;5014585;28;20057;-74
2023/12/04 08:21:56;;;;;;;9.25;2.88;;;1.80;99.90;;;;;;5013926;28;20481;-74
2023/12/04 08:24:22;;;;;;;6.95;2.75;;;1.80;99.90;;;;;;5014056;28;20097;-75
2023/12/04 08:26:48;;;;;;;8.45;2.78;;;1.80;99.90;;;;;;5014595;28;20022;-74
2023/12/04 08:29:14;;;;;;;7.10;2.50;;;1.80;99.90;;;;;;5012022;28;20169;-74
2023/12/04 08:31:40;;;;;;;7.22;2.50;;;1.80;99.90;;;;;;5020038;28;20045;-74
2023/12/04 08:34:05;;;;;;;7.47;2.33;;;1.80;99.90;;;;;;5012571;28;20038;-73
2023/12/04 08:36:31;;;;;;;4.60;2.28;;;1.90;99.90;;;;;;5020109;28;20022;-73
2023/12/04 08:38:56;;;;;;;7.43;2.53;;;1.80;99.90;;;;;;5019410;28;20026;-74
2023/12/04 08:41:22;;;;;;;8.82;2.28;;;1.90;99.90;;;;;;5020503;28;20053;-74
2023/12/04 08:43:47;;;;;;;6.63;2.40;;;1.90;99.90;;;;;;5005600;28;20033;-74
2023/12/04 08:46:14;;;;;;;7.95;2.45;;;1.90;99.90;;;;;;5009451;28;20045;-74
2023/12/04 08:48:41;;;;;;;7.97;2.88;;;2.00;99.90;;;;;;5000370;28;20133;-73
2023/12/04 08:51:08;;;;;;;7.80;2.45;;;2.00;99.90;;;;;;5015360;28;20026;-73
2023/12/04 08:53:34;;;;;;;5.72;1.70;;;2.00;99.90;;;;;;5013241;28;20041;-73
2023/12/04 08:56:00;;;;;;;5.93;2.17;;;2.00;99.90;;;;;;5019611;28;20049;-74
2023/12/04 08:58:25;;;;;;;4.00;1.52;;;2.00;99.90;;;;;;5020264;28;20030;-74
2023/12/04 09:00:51;;;;;;;5.35;2.28;;;2.00;99.90;;;;;;5019962;28;20393;-74
2023/12/04 09:03:16;;;;;;;4.78;2.13;;;2.10;99.90;;;;;;5019049;28;20022;-74
2023/12/04 09:05:42;;;;;;;5.47;2.00;;;2.10;99.90;;;;;;5020117;28;20021;-74
2023/12/04 09:08:08;;;;;;;5.78;1.77;;;2.10;99.90;;;;;;5019561;28;20033;-74
2023/12/04 09:10:33;;;;;;;6.90;2.08;;;2.20;99.90;;;;;;5020221;28;20105;-74
2023/12/04 09:12:59;;;;;;;7.32;2.50;;;2.30;99.90;;;;;;5020082;28;20390;-74
2023/12/04 09:15:25;;;;;;;5.05;1.77;;;2.20;99.90;;;;;;5019041;28;20128;-74
2023/12/04 09:17:50;;;;;;;5.40;1.95;;;2.30;99.90;;;;;;5020287;28;20385;-74
2023/12/04 09:20:16;;;;;;;7.43;1.80;;;2.40;99.90;;;;;;5019980;28;20034;-74
2023/12/04 09:22:41;;;;;;;5.00;1.60;;;2.40;99.90;;;;;;5020724;28;20355;-74
2023/12/04 09:25:08;;;;;;;4.00;1.75;;;2.40;99.90;;;;;;5020312;28;20037;-74
2023/12/04 09:27:34;;;;;;;5.35;2.05;;;2.50;99.90;;;;;;5018942;28;20022;-74
2023/12/04 09:30:00;;;;;;;7.13;2.33;;;2.50;99.90;;;;;;5018739;28;20018;-74
2023/12/04 09:32:25;;;;;;;6.38;2.00;;;2.50;99.90;;;;;;5018827;28;20026;-74
2023/12/04 09:34:51;;;;;;;5.13;1.55;;;2.50;99.90;;;;;;5020096;28;20026;-74
2023/12/04 09:37:17;;;;;;;9.25;1.67;;;2.50;99.90;;;;;;5020068;28;20036;-74
2023/12/04 09:39:42;;;;;;;6.03;1.88;;;2.50;99.90;;;;;;5020070;28;20105;-74
2023/12/04 09:42:09;;;;;;;9.75;2.42;;;2.50;99.90;;;;;;5017309;28;20363;-74
2023/12/04 09:44:36;;;;;;;5.35;1.75;;;2.60;99.90;;;;;;5016938;28;20401;-74
2023/12/04 09:47:03;;;;;;;4.20;1.30;;;2.60;99.90;;;;;;5015804;28;20394;-74
2023/12/04 09:49:30;;;;;;;4.88;1.83;;;2.60;99.90;;;;;;5017421;28;20029;-73
2023/12/04 09:51:58;;;;;;;4.72;1.98;;;2.60;99.90;;;;;;5015386;28;20022;-74
2023/12/04 09:54:24;;;;;;;4.65;1.52;;;2.60;99.90;;;;;;5016445;28;20022;-74
2023/12/04 09:56:50;;;;;;;5.00;1.50;;;2.60;99.90;;;;;;5016499;28;20026;-74
2023/12/04 09:59:17;;;;;;;5.95;1.67;;;2.60;99.90;;;;;;5016208;28;20495;-74
2023/12/04 10:01:44;;;;;;;5.95;2.28;;;2.60;99.90;;;;;;5016569;28;20482;-74
2023/12/04 10:04:10;;;;;;;6.38;1.30;;;2.70;99.90;;;;;;5016839;28;20021;-74
2023/12/04 10:06:38;;;;;;;4.88;1.40;;;2.70;99.90;;;;;;5016603;28;20040;-74
2023/12/04 10:09:04;;;;;;;5.75;1.85;;;2.70;99.90;;;;;;5014983;28;20080;-74
2023/12/04 10:11:30;;;;;;;4.78;1.88;;;2.70;99.90;;;;;;5017020;28;20400;-74
2023/12/04 10:13:56;;;;;;;5.95;1.83;;;2.80;99.90;;;;;;5016269;28;20034;-74
2023/12/04 10:16:35;;;;;;;4.97;1.67;;;2.80;99.90;;;;;;5014957;28;20068;-74
2023/12/04 10:19:17;;;;;;;4.63;1.65;;;2.80;99.90;;;;;;5014824;28;20036;-74
2023/12/04 10:21:45;;;;;;;6.40;2.13;;;2.80;99.90;;;;;;5016244;28;20095;-74
2023/12/04 10:24:10;;;;;;;4.60;1.50;;;2.90;99.90;;;;;;5014822;28;20516;-74
2023/12/04 10:26:36;;;;;;;4.97;1.92;;;2.90;99.90;;;;;;5016586;28;20018;-74
2023/12/04 10:29:04;;;;;;;7.30;1.98;;;2.90;99.90;;;;;;5014665;28;20551;-74
2023/12/04 10:31:34;;;;;;;14.95;2.78;;;2.90;99.90;;;;;;5016131;28;20014;-74
2023/12/04 10:34:00;;;;;;;11.48;2.47;;;2.90;99.90;;;;;;5015933;28;20041;-74
2023/12/04 10:36:26;;;;;;;7.03;2.08;;;3.00;99.90;;;;;;5014693;28;20022;-74
2023/12/04 10:39:00;;;;;;;5.57;1.77;;;3.00;99.90;;;;;;5014166;28;20052;-74
2023/12/04 10:41:27;;;;;;;5.70;1.67;;;3.00;99.90;;;;;;5015400;28;20021;-74
2023/12/04 10:43:55;;;;;;;4.93;1.95;;;3.00;99.90;;;;;;5015677;28;20037;-74
2023/12/04 10:46:21;;;;;;;6.28;2.33;;;3.00;99.90;;;;;;5015728;28;20069;-74
2023/12/04 10:48:48;;;;;;;7.25;2.20;;;3.10;99.90;;;;;;5014017;28;20068;-74
2023/12/04 10:51:17;;;;;;;4.20;1.60;;;3.10;99.90;;;;;;5015454;28;20021;-73
2023/12/04 10:53:44;;;;;;;7.05;2.03;;;3.10;99.90;;;;;;5015080;28;20114;-74
2023/12/04 10:56:12;;;;;;;6.32;1.77;;;3.10;99.90;;;;;;5015888;28;20026;-73
2023/12/04 10:58:41;;;;;;;7.38;2.35;;;3.20;99.90;;;;;;5015211;28;20025;-73
2023/12/04 11:01:08;;;;;;;4.47;1.33;;;3.20;99.90;;;;;;5014301;28;20493;-73
2023/12/04 11:03:44;;;;;;;8.88;2.15;;;3.20;99.90;;;;;;5015226;28;20026;-73
2023/12/04 11:06:12;;;;;;;8.88;2.58;;;3.30;99.90;;;;;;5014073;28;20025;-73
2023/12/04 11:08:41;;;;;;;5.30;1.90;;;3.40;99.90;;;;;;5015147;28;20497;-73
2023/12/04 11:11:11;;;;;;;6.40;2.22;;;3.30;99.90;;;;;;5015308;28;20389;-73
2023/12/04 11:13:41;;;;;;;4.50;1.60;;;3.40;99.90;;;;;;5014030;28;20053;-73
2023/12/04 11:16:16;;;;;;;7.32;2.10;;;3.40;99.90;;;;;;5015009;28;20041;-73
2023/12/04 11:18:46;;;;;;;6.40;2.63;;;3.50;99.90;;;;;;5015073;28;20461;-73
2023/12/04 11:21:12;;;;;;;6.93;2.25;;;3.40;99.90;;;;;;5015585;28;20061;-73
2023/12/04 11:23:39;;;;;;;7.63;2.88;;;3.40;99.90;;;;;;5015201;28;20049;-73
2023/12/04 11:26:05;;;;;;;6.60;2.08;;;3.40;99.90;;;;;;5014632;28;20100;-73
2023/12/04 11:28:32;;;;;;;5.53;2.15;;;3.40;99.90;;;;;;5015477;28;20029;-73
2023/12/04 11:30:59;;;;;;;9.70;2.40;;;3.40;99.90;;;;;;5013550;28;20080;-73
2023/12/04 11:33:24;;;;;;;10.85;3.00;;;3.50;99.90;;;;;;5013636;28;20425;-73
2023/12/04 11:35:51;;;;;;;6.82;2.55;;;3.50;99.90;;;;;;5013540;28;20026;-73
2023/12/04 11:38:19;;;;;;;8.52;2.63;;;3.40;99.90;;;;;;5014642;28;20026;-74
2023/12/04 11:40:46;;;;;;;6.65;2.58;;;3.40;99.90;;;;;;5014667;28;20112;-73
2023/12/04 11:43:25;;;;;;;6.60;2.13;;;3.40;99.90;;;;;;5014510;28;20152;-73
2023/12/04 11:45:51;;;;;;;7.95;2.45;;;3.40;99.90;;;;;;5014557;28;20021;-73
2023/12/04 11:48:21;;;;;;;9.15;2.42;;;3.30;99.90;;;;;;5013398;28;20089;-73
2023/12/04 11:50:47;;;;;;;8.13;2.85;;;3.30;99.90;;;;;;5013096;28;20044;-73
2023/12/04 11:53:13;;;;;;;8.27;3.42;;;3.30;99.90;;;;;;5014869;28;20476;-73
2023/12/04 11:55:43;;;;;;;8.02;2.95;;;3.30;99.90;;;;;;5014530;28;20018;-73
2023/12/04 11:58:12;;;;;;;8.23;2.78;;;3.30;99.90;;;;;;5014383;28;20114;-74
2023/12/04 12:00:38;;;;;;;7.78;3.10;;;3.40;99.90;;;;;;5013117;28;20551;-73
2023/12/04 12:03:09;;;;;;;10.25;2.70;;;3.60;99.90;;;;;;5014445;28;20374;-73
2023/12/04 12:05:38;;;;;;;6.80;2.30;;;3.50;99.90;;;;;;5012994;28;20401;-73
2023/12/04 12:08:05;;;;;;;7.32;3.05;;;3.60;99.90;;;;;;5014220;28;20373;-73
2023/12/04 12:10:31;;;;;;;7.45;2.75;;;3.60;99.90;;;;;;5012476;28;20030;-73
2023/12/04 12:12:57;;;;;;;8.77;2.65;;;3.60;99.90;;;;;;5013328;28;20394;-74
2023/12/04 12:15:23;;;;;;;7.60;2.90;;;3.60;99.90;;;;;;5013320;28;20437;-74
2023/12/04 12:17:51;;;;;;;7.32;2.88;;;3.50;99.90;;;;;;5014052;28;20032;-73
2023/12/04 12:20:17;;;;;;;7.85;2.67;;;3.50;99.90;;;;;;5013807;28;20109;-73
2023/12/04 12:22:46;;;;;;;8.60;2.97;;;3.50;99.90;;;;;;5012603;28;20508;-73
2023/12/04 12:25:11;;;;;;;6.80;2.97;;;3.50;99.90;;;;;;5012707;28;20030;-73
2023/12/04 12:27:38;;;;;;;8.00;2.78;;;3.50;99.90;;;;;;5012941;28;20017;-73
2023/12/04 12:30:04;;;;;;;10.73;3.63;;;3.40;99.90;;;;;;5014379;28;20030;-73
2023/12/04 12:32:36;;;;;;;6.70;2.45;;;3.40;99.90;;;;;;5014030;28;20421;-73
2023/12/04 12:35:03;;;;;;;10.85;2.95;;;3.40;99.90;;;;;;5013861;28;20018;-73
2023/12/04 12:37:29;;;;;;;8.85;3.60;;;3.40;99.90;;;;;;5013931;28;20109;-73
2023/12/04 12:39:54;;;;;;;8.18;3.13;;;3.40;99.90;;;;;;5013676;28;20110;-73
2023/12/04 12:42:28;;;;;;;8.75;3.05;;;3.40;99.90;;;;;;5014069;28;20030;-74
2023/12/04 12:44:55;;;;;;;10.35;2.97;;;3.50;99.90;;;;;;5013960;28;20029;-74